createdAt,value
2022-11-13T00:00:40.172Z,11.48
2022-11-13T00:03:25.806Z,11.21
2022-11-13T00:06:13.901Z,11.09
2022-11-13T00:09:00.108Z,11.24
2022-11-13T00:11:46.018Z,11.17
2022-11-13T00:14:32.043Z,11.03
2022-11-13T00:17:18.164Z,11.15
2022-11-13T00:20:05.144Z,11.06
2022-11-13T00:22:51.191Z,11.26
2022-11-13T00:25:37.236Z,11.54
2022-11-13T00:28:23.234Z,11.46
2022-11-13T00:31:12.021Z,11.43
2022-11-13T00:37:06.089Z,11.22
2022-11-13T00:39:56.983Z,11.39
2022-11-13T00:42:45.730Z,11.12
2022-11-13T00:45:34.770Z,11.19
2022-11-13T00:48:21.239Z,11.28
2022-11-13T00:51:07.258Z,11.24
2022-11-13T00:53:53.866Z,11.23
2022-11-13T00:56:40.168Z,11.46
2022-11-13T00:59:25.956Z,11.54
2022-11-13T01:02:15.243Z,11.58
2022-11-13T01:05:01.832Z,11.31
2022-11-13T01:07:47.501Z,11.30
2022-11-13T01:10:36.006Z,11.14
2022-11-13T01:13:22.167Z,11.45
2022-11-13T01:16:11.347Z,11.82
2022-11-13T01:18:57.971Z,11.70
2022-11-13T01:21:43.987Z,11.27
2022-11-13T01:24:29.724Z,11.41
2022-11-13T01:27:16.020Z,11.41
2022-11-13T01:30:01.953Z,11.23
2022-11-13T01:32:47.692Z,11.16
2022-11-13T01:35:33.520Z,10.95
2022-11-13T01:38:19.780Z,11.04
2022-11-13T01:41:20.327Z,11.08
2022-11-13T01:44:16.357Z,10.98
2022-11-13T01:47:04.269Z,10.91
2022-11-13T01:49:57.591Z,10.89
2022-11-13T01:52:43.706Z,10.97
2022-11-13T01:55:30.303Z,10.96
2022-11-13T01:58:16.927Z,10.97
2022-11-13T02:01:03.227Z,11.42
2022-11-13T02:03:49.210Z,11.42
2022-11-13T02:06:50.093Z,11.34
2022-11-13T02:09:46.315Z,11.26
2022-11-13T02:12:37.904Z,11.22
2022-11-13T02:15:28.696Z,11.05
2022-11-13T02:18:16.589Z,11.01
2022-11-13T02:21:11.130Z,11.11
2022-11-13T02:24:28.394Z,11.08
2022-11-13T02:27:36.160Z,11.27
2022-11-13T02:30:32.778Z,11.16
2022-11-13T02:33:31.951Z,11.07
2022-11-13T02:36:21.743Z,10.98
2022-11-13T02:39:12.908Z,10.92
2022-11-13T02:41:58.952Z,11.05
2022-11-13T02:44:45.167Z,10.89
2022-11-13T02:47:30.904Z,10.92
2022-11-13T02:50:18.037Z,10.90
2022-11-13T02:53:05.677Z,10.89
2022-11-13T02:55:51.781Z,10.85
2022-11-13T02:58:37.626Z,10.96
2022-11-13T03:01:23.539Z,10.96
2022-11-13T03:04:09.701Z,11.01
2022-11-13T03:06:55.923Z,11.09
2022-11-13T03:09:42.522Z,11.22
2022-11-13T03:12:28.812Z,11.09
2022-11-13T03:15:14.973Z,11.18
2022-11-13T03:18:08.144Z,11.23
2022-11-13T03:20:54.244Z,11.18
2022-11-13T03:23:42.120Z,11.17
2022-11-13T03:26:28.439Z,11.09
2022-11-13T03:29:15.423Z,11.00
2022-11-13T03:32:03.204Z,10.97
2022-11-13T03:34:49.401Z,11.07
2022-11-13T03:37:35.568Z,11.00
2022-11-13T03:40:21.355Z,11.04
2022-11-13T03:43:07.211Z,11.11
2022-11-13T03:45:53.453Z,11.18
2022-11-13T03:48:39.517Z,11.07
2022-11-13T03:51:25.600Z,11.12
2022-11-13T03:54:11.830Z,11.08
2022-11-13T03:56:58.364Z,11.16
2022-11-13T03:59:44.162Z,11.01
2022-11-13T04:02:29.740Z,11.02
2022-11-13T04:05:21.520Z,11.00
2022-11-13T04:08:09.590Z,11.25
2022-11-13T04:10:55.689Z,11.20
2022-11-13T04:13:41.785Z,11.14
2022-11-13T04:16:27.855Z,11.31
2022-11-13T04:19:13.655Z,11.26
2022-11-13T04:21:59.633Z,11.19
2022-11-13T04:24:45.481Z,11.30
2022-11-13T04:27:31.500Z,11.46
2022-11-13T04:30:17.912Z,11.15
2022-11-13T04:33:03.929Z,11.15
2022-11-13T04:35:50.187Z,11.26
2022-11-13T04:38:35.915Z,11.17
2022-11-13T04:41:40.860Z,11.16
2022-11-13T04:44:26.875Z,11.15
2022-11-13T04:47:12.627Z,11.09
2022-11-13T04:49:59.038Z,11.19
2022-11-13T04:52:45.494Z,11.20
2022-11-13T04:55:31.661Z,11.17
2022-11-13T04:58:17.818Z,11.28
2022-11-13T05:01:04.218Z,11.51
2022-11-13T05:03:50.008Z,11.42
2022-11-13T05:06:36.399Z,11.43
2022-11-13T05:09:23.416Z,11.41
2022-11-13T05:12:09.468Z,11.39
2022-11-13T05:14:55.488Z,11.25
2022-11-13T05:17:41.663Z,11.13
2022-11-13T05:20:28.000Z,11.25
2022-11-13T05:23:13.964Z,11.39
2022-11-13T05:26:10.354Z,11.26
2022-11-13T05:29:01.365Z,11.22
2022-11-13T05:31:47.562Z,11.12
2022-11-13T05:34:33.346Z,11.15
2022-11-13T05:37:18.959Z,11.21
2022-11-13T05:40:05.378Z,11.25
2022-11-13T05:42:52.977Z,11.27
2022-11-13T05:45:39.977Z,11.46
2022-11-13T05:48:26.232Z,11.80
2022-11-13T05:51:17.688Z,11.61
2022-11-13T05:54:04.158Z,11.55
2022-11-13T05:56:49.916Z,11.33
2022-11-13T05:59:36.065Z,11.50
2022-11-13T06:02:22.184Z,11.57
2022-11-13T06:05:08.861Z,11.51
2022-11-13T06:07:54.792Z,11.84
2022-11-13T06:10:40.772Z,11.71
2022-11-13T06:13:27.402Z,11.67
2022-11-13T06:16:18.178Z,11.72
2022-11-13T06:19:07.744Z,11.78
2022-11-13T06:21:53.751Z,11.85
2022-11-13T06:24:39.740Z,11.83
2022-11-13T06:27:25.775Z,11.76
2022-11-13T06:30:12.694Z,11.80
2022-11-13T06:32:58.675Z,11.83
2022-11-13T06:35:44.545Z,11.86
2022-11-13T06:38:35.488Z,11.87
2022-11-13T06:41:25.133Z,11.94
2022-11-13T06:44:10.759Z,12.02
2022-11-13T06:46:56.638Z,12.12
2022-11-13T06:49:42.398Z,12.11
2022-11-13T06:52:28.146Z,12.13
2022-11-13T06:55:14.727Z,12.21
2022-11-13T06:58:00.603Z,12.37
2022-11-13T07:00:46.577Z,12.48
2022-11-13T07:03:32.728Z,12.47
2022-11-13T07:06:23.839Z,12.50
2022-11-13T07:09:09.809Z,12.59
2022-11-13T07:11:56.345Z,12.72
2022-11-13T07:14:42.021Z,13.10
2022-11-13T07:17:29.974Z,12.75
2022-11-13T07:20:17.493Z,12.92
2022-11-13T07:23:04.580Z,12.99
2022-11-13T07:25:55.557Z,13.15
2022-11-13T07:28:42.242Z,12.98
2022-11-13T07:31:28.326Z,12.91
2022-11-13T07:34:14.845Z,13.03
2022-11-13T07:37:01.114Z,13.03
2022-11-13T07:39:47.189Z,12.97
2022-11-13T07:42:33.474Z,12.97
2022-11-13T07:45:19.381Z,13.09
2022-11-13T07:48:05.897Z,13.14
2022-11-13T07:50:52.279Z,13.09
2022-11-13T07:53:42.032Z,13.19
2022-11-13T07:56:27.926Z,13.18
2022-11-13T07:59:14.334Z,13.19
2022-11-13T08:02:00.558Z,13.33
2022-11-13T08:04:47.788Z,13.38
2022-11-13T08:07:33.593Z,13.44
2022-11-13T08:10:22.456Z,13.49
2022-11-13T08:13:12.175Z,13.53
2022-11-13T08:16:02.602Z,13.83
2022-11-13T08:18:48.379Z,13.99
2022-11-13T08:21:36.138Z,13.84
2022-11-13T08:24:23.834Z,13.89
2022-11-13T08:27:09.935Z,14.05
2022-11-13T08:29:56.241Z,14.12
2022-11-13T08:32:42.300Z,14.26
2022-11-13T08:35:29.958Z,14.73
2022-11-13T08:38:16.186Z,14.62
2022-11-13T08:41:08.674Z,14.75
2022-11-13T08:43:55.678Z,14.87
2022-11-13T08:46:42.400Z,15.00
2022-11-13T08:49:28.071Z,15.20
2022-11-13T08:52:15.397Z,15.21
2022-11-13T08:55:05.075Z,15.34
2022-11-13T08:57:53.494Z,15.44
2022-11-13T09:00:39.784Z,15.63
2022-11-13T09:03:25.643Z,15.79
2022-11-13T09:06:11.588Z,15.89
2022-11-13T09:08:57.637Z,16.06
2022-11-13T09:11:43.840Z,16.37
2022-11-13T09:14:30.700Z,16.72
2022-11-13T09:17:18.936Z,17.22
2022-11-13T09:20:13.581Z,17.40
2022-11-13T09:23:09.273Z,17.51
2022-11-13T09:25:56.635Z,17.36
2022-11-13T09:28:44.312Z,17.30
2022-11-13T09:31:31.146Z,17.08
2022-11-13T09:34:16.952Z,17.08
2022-11-13T09:37:02.877Z,17.01
2022-11-13T09:39:48.882Z,17.02
2022-11-13T09:42:38.768Z,17.87
2022-11-13T09:45:25.354Z,17.38
2022-11-13T09:48:26.211Z,17.23
2022-11-13T09:51:21.335Z,17.31
2022-11-13T09:54:14.569Z,17.18
2022-11-13T09:57:32.022Z,16.92
2022-11-13T10:00:23.165Z,16.91
2022-11-13T10:04:00.026Z,16.95
2022-11-13T10:07:09.745Z,17.17
2022-11-13T10:10:36.051Z,17.59
2022-11-13T10:13:52.442Z,17.99
2022-11-13T10:17:11.591Z,18.58
2022-11-13T10:20:02.288Z,17.99
2022-11-13T10:23:06.761Z,18.30
2022-11-13T10:25:52.796Z,18.92
2022-11-13T10:28:50.448Z,18.37
2022-11-13T10:31:49.883Z,17.93
2022-11-13T10:34:36.559Z,18.10
2022-11-13T10:37:53.675Z,17.92
2022-11-13T10:40:41.552Z,18.11
2022-11-13T10:43:27.863Z,18.18
2022-11-13T10:46:25.702Z,18.37
2022-11-13T10:49:22.916Z,18.49
2022-11-13T10:52:28.160Z,18.93
2022-11-13T10:55:40.281Z,18.99
2022-11-13T10:58:27.180Z,19.57
2022-11-13T11:01:24.178Z,19.92
2022-11-13T11:04:25.013Z,19.84
2022-11-13T11:07:24.690Z,19.95
2022-11-13T11:10:57.988Z,20.50
2022-11-13T11:13:44.724Z,20.94
2022-11-13T11:16:31.936Z,20.54
2022-11-13T11:19:25.530Z,20.59
2022-11-13T11:22:19.871Z,21.28
2022-11-13T11:25:38.648Z,22.23
2022-11-13T11:28:35.685Z,22.89
2022-11-13T11:31:51.578Z,22.53
2022-11-13T11:35:04.594Z,21.66
2022-11-13T11:38:16.494Z,20.96
2022-11-13T11:41:16.830Z,21.89
2022-11-13T11:44:19.619Z,21.61
2022-11-13T11:47:16.606Z,22.09
2022-11-13T11:50:07.358Z,22.20
2022-11-13T11:53:27.359Z,22.59
2022-11-13T11:56:44.421Z,23.29
2022-11-13T12:00:18.012Z,23.40
2022-11-13T12:03:32.156Z,22.94
2022-11-13T12:07:20.606Z,23.33
2022-11-13T12:10:47.401Z,22.97
2022-11-13T12:14:14.250Z,22.53
2022-11-13T12:17:37.326Z,22.28
2022-11-13T12:20:44.427Z,22.78
2022-11-13T12:24:10.225Z,23.76
2022-11-13T12:27:32.690Z,24.04
2022-11-13T12:30:27.645Z,24.17
2022-11-13T12:33:49.530Z,24.12
2022-11-13T12:36:56.513Z,24.27
2022-11-13T12:40:04.450Z,24.27
2022-11-13T12:43:34.720Z,24.63
2022-11-13T12:46:22.206Z,24.52
2022-11-13T12:49:35.596Z,24.38
2022-11-13T12:52:24.608Z,24.07
2022-11-13T12:55:35.108Z,24.22
2022-11-13T12:58:28.699Z,24.59
2022-11-13T13:01:19.888Z,24.60
2022-11-13T13:04:54.938Z,24.63
2022-11-13T13:07:52.400Z,24.36
2022-11-13T13:10:59.312Z,24.22
2022-11-13T13:14:00.359Z,24.65
2022-11-13T13:16:46.639Z,24.70
2022-11-13T13:19:34.374Z,23.68
2022-11-13T13:22:33.949Z,21.98
2022-11-13T13:25:38.221Z,21.26
2022-11-13T13:28:24.223Z,21.05
2022-11-13T13:31:39.138Z,20.35
2022-11-13T13:34:45.556Z,19.61
2022-11-13T13:37:42.719Z,19.13
2022-11-13T13:41:01.526Z,18.99
2022-11-13T13:44:12.135Z,18.78
2022-11-13T13:47:03.792Z,18.53
2022-11-13T13:50:36.728Z,18.76
2022-11-13T13:53:31.663Z,19.61
2022-11-13T13:56:18.907Z,20.62
2022-11-13T13:59:07.935Z,21.39
2022-11-13T14:02:00.304Z,21.56
2022-11-13T14:04:54.963Z,21.73
2022-11-13T14:07:47.384Z,21.93
2022-11-13T14:10:37.230Z,22.10
2022-11-13T14:13:30.657Z,22.06
2022-11-13T14:16:17.813Z,22.19
2022-11-13T14:19:07.498Z,22.16
2022-11-13T14:21:58.257Z,21.85
2022-11-13T14:24:51.747Z,21.61
2022-11-13T14:27:38.575Z,21.44
2022-11-13T14:30:28.669Z,21.29
2022-11-13T14:33:29.769Z,20.92
2022-11-13T14:36:50.636Z,20.30
2022-11-13T14:39:37.489Z,19.69
2022-11-13T14:42:42.512Z,19.26
2022-11-13T14:45:32.032Z,19.48
2022-11-13T14:48:30.916Z,18.44
2022-11-13T14:51:31.228Z,17.91
2022-11-13T14:55:08.035Z,17.41
2022-11-13T14:57:54.887Z,17.08
2022-11-13T15:00:43.107Z,16.83
2022-11-13T15:03:31.437Z,16.45
2022-11-13T15:06:23.273Z,16.33
2022-11-13T15:12:04.829Z,15.95
2022-11-13T15:14:51.717Z,15.66
2022-11-13T15:17:39.514Z,15.63
2022-11-13T15:20:29.361Z,15.43
2022-11-13T15:23:17.242Z,15.07
2022-11-13T15:26:03.763Z,14.96
2022-11-13T15:28:52.052Z,14.92
2022-11-13T15:31:43.960Z,14.92
2022-11-13T15:37:33.810Z,14.66
2022-11-13T15:40:20.188Z,14.66
2022-11-13T15:43:19.631Z,14.52
2022-11-13T15:46:11.033Z,14.47
2022-11-13T15:48:58.360Z,14.39
2022-11-13T15:51:48.144Z,14.36
2022-11-13T15:54:40.064Z,14.26
2022-11-13T15:57:32.438Z,14.28
2022-11-13T16:00:27.328Z,14.22
2022-11-13T16:03:16.029Z,14.10
2022-11-13T16:06:06.273Z,14.05
2022-11-13T16:08:52.910Z,14.01
2022-11-13T16:11:42.505Z,13.92
2022-11-13T16:14:29.881Z,13.84
2022-11-13T16:17:23.477Z,13.77
2022-11-13T16:20:17.766Z,13.72
2022-11-13T16:23:04.804Z,13.71
2022-11-13T16:25:51.794Z,13.63
2022-11-13T16:29:14.228Z,13.61
2022-11-13T16:32:00.409Z,13.42
2022-11-13T16:34:51.136Z,13.44
2022-11-13T16:37:42.602Z,13.45
2022-11-13T16:40:33.478Z,13.40
2022-11-13T16:43:19.909Z,13.23
2022-11-13T16:46:25.563Z,13.16
2022-11-13T16:49:22.128Z,13.16
2022-11-13T16:52:14.145Z,13.19
2022-11-13T16:55:06.577Z,13.24
2022-11-13T16:57:56.229Z,13.14
2022-11-13T17:00:44.223Z,13.15
2022-11-13T17:03:33.355Z,13.08
2022-11-13T17:06:33.958Z,12.99
2022-11-13T17:09:30.267Z,12.90
2022-11-13T17:12:19.131Z,12.91
2022-11-13T17:15:10.530Z,12.80
2022-11-13T17:18:00.880Z,12.98
2022-11-13T17:20:51.462Z,13.18
2022-11-13T17:23:41.212Z,12.86
2022-11-13T17:26:30.888Z,12.68
2022-11-13T17:29:17.825Z,12.58
2022-11-13T17:32:03.696Z,12.85
2022-11-13T17:34:50.587Z,12.62
2022-11-13T17:37:39.670Z,12.55
2022-11-13T17:40:26.114Z,12.49
2022-11-13T17:43:19.715Z,12.45
2022-11-13T17:46:13.454Z,12.25
2022-11-13T17:48:59.839Z,12.21
2022-11-13T17:51:48.239Z,12.20
2022-11-13T17:54:36.013Z,12.22
2022-11-13T17:57:26.697Z,12.15
2022-11-13T18:00:18.386Z,12.09
2022-11-13T18:03:06.780Z,12.05
2022-11-13T18:05:53.387Z,11.94
2022-11-13T18:08:41.730Z,12.00
2022-11-13T18:11:30.898Z,11.85
2022-11-13T18:14:20.928Z,11.80
2022-11-13T18:17:29.221Z,11.72
2022-11-13T18:20:15.844Z,11.71
2022-11-13T18:23:02.703Z,11.62
2022-11-13T18:25:50.094Z,11.68
2022-11-13T18:28:36.420Z,11.64
2022-11-13T18:31:23.674Z,11.63
2022-11-13T18:34:17.376Z,11.44
2022-11-13T18:37:06.088Z,11.21
2022-11-13T18:39:53.468Z,11.05
2022-11-13T18:42:39.646Z,11.02
2022-11-13T18:45:25.421Z,11.04
2022-11-13T18:48:14.062Z,11.04
2022-11-13T18:51:04.733Z,10.88
2022-11-13T18:53:54.589Z,10.74
2022-11-13T18:56:41.167Z,10.75
2022-11-13T18:59:27.461Z,10.66
2022-11-13T19:02:14.123Z,10.62
2022-11-13T19:05:01.267Z,10.62
2022-11-13T19:07:47.558Z,10.43
2022-11-13T19:10:37.286Z,10.30
2022-11-13T19:13:27.213Z,10.28
2022-11-13T19:16:35.911Z,10.19
2022-11-13T19:19:28.720Z,10.08
2022-11-13T19:22:15.084Z,9.99
2022-11-13T19:25:03.627Z,10.02
2022-11-13T19:27:56.674Z,10.06
2022-11-13T19:30:48.516Z,10.07
2022-11-13T19:33:36.606Z,10.08
2022-11-13T19:36:24.886Z,10.09
2022-11-13T19:39:10.952Z,10.19
2022-11-13T19:41:59.064Z,9.98
2022-11-13T19:44:48.071Z,10.08
2022-11-13T19:47:34.148Z,10.09
2022-11-13T19:50:20.503Z,10.06
2022-11-13T19:53:07.398Z,10.09
2022-11-13T19:55:57.555Z,9.88
2022-11-13T19:58:45.907Z,9.72
2022-11-13T20:01:33.929Z,9.62
2022-11-13T20:04:19.690Z,9.57
2022-11-13T20:07:07.069Z,9.40
2022-11-13T20:09:53.253Z,9.30
2022-11-13T20:12:41.475Z,9.29
2022-11-13T20:15:27.781Z,9.55
2022-11-13T20:18:16.407Z,9.69
2022-11-13T20:21:03.272Z,9.75
2022-11-13T20:23:49.617Z,9.75
2022-11-13T20:26:35.590Z,9.86
2022-11-13T20:29:21.841Z,9.76
2022-11-13T20:32:10.394Z,9.69
2022-11-13T20:34:57.791Z,9.60
2022-11-13T20:37:43.766Z,9.55
2022-11-13T20:40:30.228Z,9.56
2022-11-13T20:43:16.546Z,9.62
2022-11-13T20:46:21.697Z,9.45
2022-11-13T20:49:09.253Z,9.33
2022-11-13T20:51:57.328Z,9.32
2022-11-13T20:54:43.503Z,9.31
2022-11-13T20:57:34.453Z,9.43
2022-11-13T21:00:23.928Z,9.45
2022-11-13T21:03:10.344Z,9.21
2022-11-13T21:05:56.612Z,9.19
2022-11-13T21:08:44.624Z,9.18
2022-11-13T21:11:36.398Z,9.11
2022-11-13T21:14:23.004Z,9.01
2022-11-13T21:17:09.169Z,9.00
2022-11-13T21:19:57.702Z,8.78
2022-11-13T21:22:49.742Z,8.87
2022-11-13T21:25:38.238Z,8.81
2022-11-13T21:28:27.045Z,8.68
2022-11-13T21:31:20.868Z,8.52
2022-11-13T21:34:12.045Z,8.29
2022-11-13T21:36:57.754Z,9.14
2022-11-13T21:39:43.949Z,8.76
2022-11-13T21:42:31.273Z,8.03
2022-11-13T21:45:18.233Z,7.91
2022-11-13T21:48:04.549Z,7.75
2022-11-13T21:50:51.968Z,7.45
2022-11-13T21:53:40.864Z,7.33
2022-11-13T21:56:29.096Z,7.30
2022-11-13T21:59:15.338Z,7.26
2022-11-13T22:02:01.890Z,7.51
2022-11-13T22:04:47.762Z,7.43
2022-11-13T22:07:33.682Z,7.55
2022-11-13T22:10:19.627Z,7.77
2022-11-13T22:13:05.891Z,7.71
2022-11-13T22:15:52.067Z,7.61
2022-11-13T22:18:39.665Z,7.61
2022-11-13T22:21:27.613Z,7.48
2022-11-13T22:24:15.268Z,7.53
2022-11-13T22:27:01.092Z,7.57
2022-11-13T22:29:47.123Z,7.53
2022-11-13T22:32:33.767Z,7.61
2022-11-13T22:35:20.112Z,7.49
2022-11-13T22:38:06.286Z,7.43
2022-11-13T22:40:53.840Z,7.39
2022-11-13T22:43:42.445Z,7.41
2022-11-13T22:46:31.559Z,7.45
2022-11-13T22:49:17.503Z,7.52
2022-11-13T22:52:03.884Z,7.80
2022-11-13T22:54:49.852Z,7.98
2022-11-13T22:57:35.570Z,7.76
2022-11-13T23:00:22.186Z,7.77
2022-11-13T23:03:08.212Z,7.84
2022-11-13T23:05:53.896Z,7.58
2022-11-13T23:08:41.324Z,7.32
2022-11-13T23:11:40.478Z,7.54
2022-11-13T23:14:26.509Z,7.51
2022-11-13T23:17:12.477Z,7.48
2022-11-13T23:19:58.506Z,7.43
2022-11-13T23:22:47.179Z,7.29
2022-11-13T23:25:34.432Z,7.26
2022-11-13T23:28:20.455Z,7.42
2022-11-13T23:31:07.589Z,7.23
2022-11-13T23:33:53.614Z,7.27
2022-11-13T23:36:39.405Z,6.95
2022-11-13T23:39:25.385Z,6.98
2022-11-13T23:42:14.235Z,6.86
2022-11-13T23:45:00.163Z,7.01
2022-11-13T23:47:46.024Z,6.94
2022-11-13T23:50:31.887Z,6.61
2022-11-13T23:53:18.298Z,6.57
2022-11-13T23:56:04.464Z,6.46
2022-11-13T23:58:53.394Z,6.34
